createdAt,value
2018-12-15T00:01:29.030Z,24.07
2018-12-15T00:04:04.665Z,22.60
2018-12-15T00:07:00.196Z,23.63
2018-12-15T00:09:33.953Z,23.70
2018-12-15T00:12:15.621Z,20.57
2018-12-15T00:14:49.137Z,21.00
2018-12-15T00:17:28.650Z,23.80
2018-12-15T00:20:02.376Z,21.87
2018-12-15T00:22:36.362Z,22.43
2018-12-15T00:25:16.011Z,22.93
2018-12-15T00:27:49.544Z,23.27
2018-12-15T00:30:22.993Z,19.90
2018-12-15T00:32:56.943Z,23.30
2018-12-15T00:35:33.356Z,21.63
2018-12-15T00:38:07.165Z,21.73
2018-12-15T00:40:40.372Z,23.90
2018-12-15T00:43:13.558Z,24.53
2018-12-15T00:45:51.717Z,23.13
2018-12-15T00:48:25.710Z,21.97
2018-12-15T00:50:58.809Z,22.37
2018-12-15T00:53:40.601Z,23.70
2018-12-15T00:56:14.002Z,24.70
2018-12-15T00:58:47.317Z,23.93
2018-12-15T01:01:23.519Z,25.03
2018-12-15T01:04:00.708Z,26.43
2018-12-15T01:06:36.570Z,23.13
2018-12-15T01:09:12.241Z,23.90
2018-12-15T01:11:53.941Z,24.67
2018-12-15T01:14:27.155Z,23.53
2018-12-15T01:17:07.269Z,25.03
2018-12-15T01:19:40.854Z,27.10
2018-12-15T01:22:12.911Z,25.83
2018-12-15T01:24:48.265Z,27.27
2018-12-15T01:27:28.475Z,23.57
2018-12-15T01:30:02.573Z,25.70
2018-12-15T01:32:33.682Z,26.33
2018-12-15T01:35:05.170Z,22.80
2018-12-15T01:37:45.339Z,24.10
2018-12-15T01:40:18.937Z,24.00
2018-12-15T01:42:58.310Z,24.47
2018-12-15T01:45:32.086Z,23.80
2018-12-15T01:48:07.226Z,25.20
2018-12-15T01:50:40.446Z,23.43
2018-12-15T01:53:15.749Z,24.17
2018-12-15T01:55:47.575Z,23.20
2018-12-15T01:58:21.828Z,25.17
2018-12-15T02:00:55.041Z,26.03
2018-12-15T02:03:27.277Z,27.03
2018-12-15T02:06:00.529Z,24.90
2018-12-15T02:08:33.650Z,25.43
2018-12-15T02:11:08.830Z,28.80
2018-12-15T02:13:42.283Z,25.10
2018-12-15T02:16:17.802Z,27.70
2018-12-15T02:18:51.603Z,27.50
2018-12-15T02:21:25.049Z,28.90
2018-12-15T02:24:05.150Z,28.90
2018-12-15T02:26:38.842Z,25.80
2018-12-15T02:29:14.510Z,24.93
2018-12-15T02:31:48.273Z,26.47
2018-12-15T02:34:22.273Z,27.07
2018-12-15T02:36:55.519Z,26.93
2018-12-15T02:39:29.468Z,29.53
2018-12-15T02:42:07.614Z,27.20
2018-12-15T02:44:45.588Z,28.13
2018-12-15T02:47:23.522Z,28.70
2018-12-15T02:49:55.404Z,28.97
2018-12-15T02:52:28.505Z,26.80
2018-12-15T02:55:01.677Z,27.50
2018-12-15T02:57:35.022Z,26.47
2018-12-15T03:00:09.019Z,29.07
2018-12-15T03:02:44.267Z,31.73
2018-12-15T03:05:17.608Z,27.37
2018-12-15T03:07:50.834Z,24.17
2018-12-15T03:10:26.106Z,27.73
2018-12-15T03:13:04.199Z,27.17
2018-12-15T03:15:37.811Z,27.20
2018-12-15T03:18:10.997Z,27.10
2018-12-15T03:21:06.976Z,29.63
2018-12-15T03:23:44.610Z,28.50
2018-12-15T03:26:25.031Z,27.60
2018-12-15T03:28:58.684Z,27.47
2018-12-15T03:31:36.298Z,27.27
2018-12-15T03:34:16.036Z,26.77
2018-12-15T03:36:49.773Z,27.27
2018-12-15T03:39:23.597Z,26.33
2018-12-15T03:41:56.798Z,23.73
2018-12-15T03:44:29.862Z,26.63
2018-12-15T03:47:03.742Z,26.40
2018-12-15T03:49:37.141Z,24.93
2018-12-15T03:52:11.118Z,23.03
2018-12-15T03:54:44.341Z,23.17
2018-12-15T03:57:23.642Z,22.13
2018-12-15T03:59:57.490Z,22.53
2018-12-15T04:02:29.523Z,24.23
2018-12-15T04:05:02.597Z,20.23
2018-12-15T04:07:37.981Z,23.60
2018-12-15T04:10:12.125Z,23.67
2018-12-15T04:12:45.897Z,22.37
2018-12-15T04:15:19.729Z,24.60
2018-12-15T04:17:54.507Z,25.00
2018-12-15T04:20:27.718Z,23.73
2018-12-15T04:23:00.962Z,24.33
2018-12-15T04:25:34.343Z,23.40
2018-12-15T04:28:09.862Z,22.70
2018-12-15T04:30:45.868Z,24.07
2018-12-15T04:33:19.613Z,22.23
2018-12-15T04:35:54.678Z,25.37
2018-12-15T04:38:34.913Z,23.10
2018-12-15T04:41:09.037Z,24.33
2018-12-15T04:43:43.029Z,23.67
2018-12-15T04:46:16.215Z,24.07
2018-12-15T04:48:50.199Z,24.47
2018-12-15T04:51:24.126Z,27.93
2018-12-15T04:54:03.772Z,20.30
2018-12-15T04:56:37.545Z,22.73
2018-12-15T04:59:11.694Z,23.73
2018-12-15T05:19:37.799Z,23.70
2018-12-15T05:24:43.395Z,23.57
2018-12-15T05:27:25.479Z,21.80
2018-12-15T05:30:00.900Z,22.53
2018-12-15T05:32:36.789Z,22.67
2018-12-15T05:35:10.906Z,20.97
2018-12-15T05:37:47.237Z,23.47
2018-12-15T05:40:20.977Z,23.10
2018-12-15T05:42:54.293Z,21.23
2018-12-15T05:45:27.551Z,21.20
2018-12-15T05:48:01.233Z,22.87
2018-12-15T05:50:36.713Z,21.50
2018-12-15T05:53:12.090Z,22.93
2018-12-15T05:55:48.312Z,21.93
2018-12-15T05:58:27.642Z,24.00
2018-12-15T06:01:05.725Z,20.63
2018-12-15T06:03:37.525Z,26.13
2018-12-15T06:06:10.740Z,24.07
2018-12-15T06:08:46.261Z,23.37
2018-12-15T06:11:24.442Z,21.57
2018-12-15T06:14:04.115Z,22.93
2018-12-15T06:16:44.054Z,25.13
2018-12-15T06:19:18.179Z,24.97
2018-12-15T06:21:50.565Z,21.63
2018-12-15T06:24:25.918Z,19.40
2018-12-15T06:27:08.382Z,22.03
2018-12-15T06:29:41.995Z,22.83
2018-12-15T06:32:13.566Z,21.50
2018-12-15T06:34:48.456Z,22.73
2018-12-15T06:37:21.979Z,21.70
2018-12-15T06:39:55.567Z,24.83
2018-12-15T06:42:31.206Z,21.20
2018-12-15T06:45:13.894Z,23.90
2018-12-15T06:47:47.328Z,22.43
2018-12-15T06:50:23.090Z,19.77
2018-12-15T06:52:59.213Z,25.00
2018-12-15T06:55:39.085Z,21.07
2018-12-15T06:58:15.257Z,19.60
2018-12-15T07:00:48.372Z,23.07
2018-12-15T07:03:23.998Z,24.47
2018-12-15T07:05:56.816Z,20.50
2018-12-15T07:08:30.305Z,21.80
2018-12-15T07:11:10.272Z,22.13
2018-12-15T07:13:42.039Z,21.43
2018-12-15T07:16:13.504Z,17.33
2018-12-15T07:18:47.351Z,19.70
2018-12-15T07:21:21.165Z,20.50
2018-12-15T07:23:54.117Z,17.40
2018-12-15T07:26:27.583Z,22.70
2018-12-15T07:29:01.217Z,18.87
2018-12-15T07:31:33.216Z,17.13
2018-12-15T07:34:06.834Z,17.20
2018-12-15T07:36:46.384Z,22.17
2018-12-15T07:39:20.339Z,19.30
2018-12-15T07:42:00.138Z,21.77
2018-12-15T07:44:37.468Z,20.07
2018-12-15T07:47:18.507Z,20.67
2018-12-15T07:49:51.780Z,18.30
2018-12-15T07:52:31.920Z,20.23
2018-12-15T07:55:12.253Z,16.30
2018-12-15T07:57:48.413Z,19.73
2018-12-15T08:00:20.307Z,19.73
2018-12-15T08:02:59.888Z,19.27
2018-12-15T08:05:36.063Z,19.47
2018-12-15T08:08:10.302Z,17.77
2018-12-15T08:12:56.212Z,19.03
2018-12-15T08:15:28.977Z,16.47
2018-12-15T08:18:02.069Z,16.77
2018-12-15T08:20:37.846Z,16.43
2018-12-15T08:23:17.291Z,17.90
2018-12-15T08:25:52.649Z,15.63
2018-12-15T08:28:23.876Z,18.67
2018-12-15T08:30:59.793Z,17.67
2018-12-15T08:33:38.200Z,16.10
2018-12-15T08:36:14.271Z,16.27
2018-12-15T08:38:50.255Z,15.10
2018-12-15T08:41:21.283Z,15.97
2018-12-15T08:43:54.849Z,17.63
2018-12-15T08:46:34.657Z,16.83
2018-12-15T08:49:07.841Z,16.90
2018-12-15T08:51:39.732Z,14.30
2018-12-15T08:54:13.818Z,16.97
2018-12-15T08:56:53.613Z,15.43
2018-12-15T08:59:27.671Z,15.37
2018-12-15T09:02:04.011Z,14.50
2018-12-15T09:04:42.315Z,14.30
2018-12-15T09:07:21.907Z,12.93
2018-12-15T09:09:57.405Z,13.43
2018-12-15T09:12:29.152Z,13.87
2018-12-15T09:15:02.701Z,14.13
2018-12-15T09:17:42.301Z,14.10
2018-12-15T09:20:16.056Z,14.30
2018-12-15T09:22:56.397Z,15.50
2018-12-15T09:25:31.741Z,13.77
2018-12-15T09:28:05.461Z,15.27
2018-12-15T09:30:38.650Z,12.23
2018-12-15T09:33:18.550Z,10.37
2018-12-15T09:35:52.405Z,12.73
2018-12-15T09:38:25.827Z,11.83
2018-12-15T09:41:00.360Z,12.23
2018-12-15T09:43:34.041Z,11.07
2018-12-15T09:46:09.444Z,13.63
2018-12-15T09:48:44.932Z,13.43
2018-12-15T09:51:18.929Z,15.20
2018-12-15T09:53:53.046Z,11.80
2018-12-15T09:56:32.636Z,13.00
2018-12-15T09:59:06.606Z,11.60
2018-12-15T10:01:48.547Z,12.07
2018-12-15T10:04:24.296Z,12.90
2018-12-15T10:07:02.471Z,12.37
2018-12-15T10:09:36.484Z,13.47
2018-12-15T10:12:09.815Z,12.93
2018-12-15T10:14:51.833Z,11.33
2018-12-15T10:17:33.689Z,11.60
2018-12-15T10:20:07.783Z,11.53
2018-12-15T10:22:39.830Z,11.73
2018-12-15T10:25:13.302Z,12.70
2018-12-15T10:27:52.828Z,12.63
2018-12-15T10:30:33.588Z,12.53
2018-12-15T10:33:13.471Z,11.27
2018-12-15T10:35:53.816Z,11.67
2018-12-15T10:38:25.811Z,12.33
2018-12-15T10:41:01.326Z,12.13
2018-12-15T10:43:39.714Z,13.90
2018-12-15T10:46:15.844Z,12.33
2018-12-15T10:48:51.090Z,12.83
2018-12-15T10:51:31.800Z,12.77
2018-12-15T10:54:08.952Z,12.47
2018-12-15T10:56:48.375Z,12.73
2018-12-15T10:59:24.720Z,12.50
2018-12-15T11:02:03.183Z,13.03
2018-12-15T11:04:41.453Z,11.70
2018-12-15T11:07:20.941Z,11.20
2018-12-15T11:09:57.106Z,12.57
2018-12-15T11:12:37.204Z,10.93
2018-12-15T11:15:12.580Z,11.77
2018-12-15T11:17:52.789Z,12.20
2018-12-15T11:20:26.870Z,11.73
2018-12-15T11:23:06.325Z,9.40
2018-12-15T11:25:44.495Z,12.27
2018-12-15T11:28:21.776Z,12.20
2018-12-15T11:30:55.718Z,11.37
2018-12-15T11:33:29.094Z,11.57
2018-12-15T11:36:08.706Z,14.93
2018-12-15T11:38:40.546Z,15.27
2018-12-15T11:41:14.172Z,11.93
2018-12-15T11:43:49.983Z,13.47
2018-12-15T11:46:28.181Z,12.83
2018-12-15T11:49:04.479Z,13.43
2018-12-15T11:51:42.322Z,10.90
2018-12-15T11:54:15.981Z,10.63
2018-12-15T11:56:49.832Z,12.07
2018-12-15T11:59:23.011Z,10.83
2018-12-15T12:01:56.191Z,11.53
2018-12-15T12:04:32.437Z,13.23
2018-12-15T12:07:10.229Z,12.50
2018-12-15T12:09:43.888Z,12.10
2018-12-15T12:12:19.532Z,14.80
2018-12-15T12:14:53.231Z,12.33
2018-12-15T12:17:26.614Z,14.67
2018-12-15T12:20:00.594Z,15.47
2018-12-15T12:22:33.816Z,13.50
2018-12-15T12:25:07.251Z,16.37
2018-12-15T12:27:50.957Z,14.87
2018-12-15T12:30:22.372Z,15.77
2018-12-15T12:32:59.419Z,15.73
2018-12-15T12:35:33.052Z,15.07
2018-12-15T12:38:09.351Z,18.10
2018-12-15T12:40:43.278Z,16.53
2018-12-15T12:43:16.452Z,16.60
2018-12-15T12:45:49.794Z,17.90
2018-12-15T12:48:23.926Z,16.47
2018-12-15T12:50:58.238Z,14.37
2018-12-15T12:53:30.353Z,18.07
2018-12-15T12:56:04.052Z,17.40
2018-12-15T12:58:38.084Z,19.23
2018-12-15T13:01:18.234Z,17.97
2018-12-15T13:03:51.677Z,19.00
2018-12-15T13:06:24.914Z,18.77
2018-12-15T13:08:58.264Z,17.03
2018-12-15T13:11:32.365Z,20.17
2018-12-15T13:14:13.825Z,17.50
2018-12-15T13:16:53.862Z,17.53
2018-12-15T13:19:27.627Z,17.50
2018-12-15T13:22:00.942Z,20.03
2018-12-15T13:24:34.068Z,21.33
2018-12-15T13:27:09.486Z,19.27
2018-12-15T13:29:43.266Z,25.57
2018-12-15T13:32:19.751Z,18.37
2018-12-15T13:34:53.532Z,20.77
2018-12-15T13:37:26.956Z,21.13
2018-12-15T13:39:59.989Z,20.60
2018-12-15T13:42:33.362Z,19.20
2018-12-15T13:45:07.333Z,20.23
2018-12-15T13:47:42.653Z,21.27
2018-12-15T14:10:38.953Z,21.27
2018-12-15T14:15:45.799Z,20.93
2018-12-15T14:18:18.753Z,21.70
2018-12-15T14:20:52.229Z,22.77
2018-12-15T14:23:25.458Z,20.40
2018-12-15T14:26:05.177Z,21.20
2018-12-15T14:28:36.538Z,22.13
2018-12-15T14:31:10.626Z,18.03
2018-12-15T14:33:50.897Z,21.07
2018-12-15T14:36:24.510Z,21.07
2018-12-15T14:38:57.701Z,21.80
2018-12-15T14:41:31.734Z,23.17
2018-12-15T14:44:07.209Z,20.80
2018-12-15T14:46:40.916Z,22.03
2018-12-15T14:49:14.223Z,21.53
2018-12-15T14:51:45.521Z,20.20
2018-12-15T14:54:19.448Z,22.87
2018-12-15T14:56:53.754Z,21.30
2018-12-15T14:59:27.060Z,29.27
2018-12-15T15:02:00.949Z,26.20
2018-12-15T15:04:35.637Z,22.87
2018-12-15T15:07:07.005Z,22.77
2018-12-15T15:09:41.070Z,23.03
2018-12-15T15:12:15.475Z,21.13
2018-12-15T15:14:54.969Z,23.70
2018-12-15T15:45:40.242Z,22.60
2018-12-15T15:50:46.966Z,23.20
2018-12-15T15:53:21.058Z,23.03
2018-12-15T15:55:56.491Z,24.77
2018-12-15T15:58:36.621Z,27.53
2018-12-15T16:01:14.523Z,27.63
2018-12-15T16:03:48.225Z,24.27
2018-12-15T16:06:24.424Z,22.93
2018-12-15T16:08:58.394Z,25.40
2018-12-15T16:11:33.840Z,28.33
2018-12-15T16:14:11.860Z,22.63
2018-12-15T16:16:45.668Z,26.67
2018-12-15T16:19:16.741Z,24.07
2018-12-15T16:21:50.090Z,24.17
2018-12-15T16:24:23.465Z,25.73
2018-12-15T16:26:59.229Z,27.27
2018-12-15T16:29:33.113Z,24.30
2018-12-15T16:32:12.695Z,27.23
2018-12-15T16:34:46.285Z,27.47
2018-12-15T16:37:23.662Z,26.27
2018-12-15T16:39:57.593Z,25.37
2018-12-15T16:42:31.493Z,25.20
2018-12-15T16:45:06.508Z,30.23
2018-12-15T16:47:39.797Z,28.53
2018-12-15T16:50:14.366Z,23.93
2018-12-15T17:30:58.822Z,22.73
2018-12-15T17:33:32.105Z,23.70
2018-12-15T17:36:08.524Z,24.47
2018-12-15T17:38:41.901Z,22.40
2018-12-15T17:41:14.995Z,24.40
2018-12-15T17:43:48.854Z,23.70
2018-12-15T17:46:24.499Z,20.37
2018-12-15T17:48:58.224Z,20.70
2018-12-15T17:51:32.165Z,21.33
2018-12-15T17:54:10.573Z,23.23
2018-12-15T17:56:44.649Z,19.30
2018-12-15T17:59:16.733Z,18.87
2018-12-15T18:01:49.969Z,21.97
2018-12-15T18:04:29.747Z,19.80
2018-12-15T18:07:05.234Z,20.23
2018-12-15T18:09:38.332Z,19.13
2018-12-15T18:12:17.256Z,19.93
2018-12-15T18:14:57.904Z,22.17
2018-12-15T18:17:33.525Z,17.83
2018-12-15T18:20:08.347Z,20.10
2018-12-15T18:22:49.638Z,20.10
2018-12-15T18:25:25.895Z,17.63
2018-12-15T18:28:04.130Z,22.60
2018-12-15T18:30:38.252Z,18.30
2018-12-15T18:40:55.618Z,20.53
2018-12-15T18:43:35.262Z,18.00
2018-12-15T18:46:12.384Z,16.57
2018-12-15T18:48:46.357Z,17.30
2018-12-15T18:51:26.094Z,19.73
2018-12-15T18:53:59.040Z,19.83
2018-12-15T18:56:30.764Z,20.33
2018-12-15T18:59:03.887Z,18.50
2018-12-15T19:01:38.026Z,20.10
2018-12-15T19:04:19.751Z,17.03
2018-12-15T19:06:57.854Z,17.07
2018-12-15T19:09:31.787Z,16.37
2018-12-15T19:12:11.210Z,17.20
2018-12-15T19:14:50.593Z,18.37
2018-12-15T19:17:28.785Z,16.97
2018-12-15T19:20:06.305Z,19.63
2018-12-15T19:22:45.973Z,17.00
2018-12-15T19:25:22.303Z,19.47
2018-12-15T19:28:02.580Z,20.47
2018-12-15T19:30:35.812Z,19.90
2018-12-15T19:33:11.415Z,18.00
2018-12-15T19:35:50.740Z,18.13
2018-12-15T19:38:29.009Z,18.53
2018-12-15T19:41:00.941Z,16.67
2018-12-15T19:43:32.089Z,14.87
2018-12-15T19:58:39.458Z,18.37
2018-12-15T20:01:18.978Z,18.57
2018-12-15T20:03:57.266Z,16.77
2018-12-15T20:06:37.617Z,16.67
2018-12-15T20:09:10.810Z,21.47
2018-12-15T20:11:50.355Z,18.63
2018-12-15T20:14:26.559Z,19.23
2018-12-15T20:17:06.839Z,18.13
2018-12-15T20:19:42.204Z,19.47
2018-12-15T20:22:15.359Z,19.70
2018-12-15T20:24:49.078Z,17.97
2018-12-15T20:27:22.439Z,23.40
2018-12-15T20:29:53.592Z,21.03
2018-12-15T20:32:25.008Z,20.60
2018-12-15T20:35:04.900Z,18.97
2018-12-15T20:37:44.647Z,24.03
2018-12-15T20:40:16.432Z,23.07
2018-12-15T20:42:50.184Z,20.80
2018-12-15T20:45:31.801Z,19.77
2018-12-15T20:48:05.331Z,22.03
2018-12-15T20:50:38.785Z,22.53
2018-12-15T20:53:14.772Z,22.90
2018-12-15T20:55:54.965Z,24.50
2018-12-15T20:58:30.495Z,20.73
2018-12-15T21:01:04.624Z,22.40
2018-12-15T21:03:44.094Z,26.77
2018-12-15T21:06:24.231Z,24.03
2018-12-15T21:08:57.639Z,23.73
2018-12-15T21:11:30.840Z,21.63
2018-12-15T21:14:02.105Z,23.57
2018-12-15T21:16:36.563Z,23.57
2018-12-15T21:19:10.046Z,21.03
2018-12-15T21:21:49.931Z,24.90
2018-12-15T21:24:30.026Z,24.10
2018-12-15T21:27:04.236Z,25.20
2018-12-15T21:29:37.762Z,25.70
2018-12-15T21:32:11.029Z,24.53
2018-12-15T21:34:46.612Z,23.97
2018-12-15T21:37:22.053Z,24.10
2018-12-15T21:39:56.010Z,23.63
2018-12-15T21:42:35.440Z,23.20
2018-12-15T21:45:15.510Z,22.10
2018-12-15T21:47:57.408Z,21.10
2018-12-15T21:50:27.134Z,29.13
2018-12-15T21:53:06.777Z,22.27
2018-12-15T21:55:40.018Z,27.67
2018-12-15T21:58:15.628Z,27.67
2018-12-15T22:00:49.270Z,24.27
2018-12-15T22:03:31.524Z,25.03
2018-12-15T22:18:52.248Z,25.87
2018-12-15T22:21:25.729Z,24.03
2018-12-15T22:24:00.981Z,26.17
2018-12-15T22:26:32.454Z,25.57
2018-12-15T22:29:05.331Z,25.70
2018-12-15T22:31:44.934Z,29.23
2018-12-15T22:34:21.169Z,27.33
2018-12-15T22:37:03.588Z,29.67
2018-12-15T22:39:37.025Z,27.17
2018-12-15T22:42:16.596Z,25.73
2018-12-15T22:44:54.790Z,26.27
2018-12-15T22:47:32.983Z,24.87
2018-12-15T22:50:07.994Z,26.10
2018-12-15T22:52:46.194Z,29.57
2018-12-15T22:55:25.734Z,26.73
2018-12-15T22:58:03.901Z,27.83
2018-12-15T23:00:43.458Z,25.53
2018-12-15T23:03:17.351Z,25.40
2018-12-15T23:05:50.767Z,27.23
2018-12-15T23:08:32.618Z,27.90
2018-12-15T23:11:08.556Z,30.00
2018-12-15T23:13:48.675Z,25.83
2018-12-15T23:16:24.141Z,25.33
2018-12-15T23:18:57.925Z,26.07
2018-12-15T23:21:29.158Z,24.17
2018-12-15T23:26:44.636Z,28.10
2018-12-15T23:29:18.724Z,29.70
2018-12-15T23:31:54.349Z,25.47
2018-12-15T23:34:32.477Z,25.03
2018-12-15T23:37:08.598Z,28.87
2018-12-15T23:39:40.510Z,29.63
2018-12-15T23:42:20.275Z,29.70
2018-12-15T23:44:56.505Z,27.93
2018-12-15T23:47:30.274Z,28.30
2018-12-15T23:50:04.198Z,30.13
2018-12-15T23:52:44.282Z,32.83
2018-12-15T23:55:21.449Z,30.43
2018-12-15T23:57:55.367Z,26.33
